sensor_id;sensor_type;location;lat;lon;timestamp;P1;durP1;ratioP1;P2;durP2;ratioP2
73940;SDS011;62294;48.554;10.202;2022-07-29T00:02:09;8.55;;;5.32;;
73940;SDS011;62294;48.554;10.202;2022-07-29T00:04:36;7.18;;;5.85;;
73940;SDS011;62294;48.554;10.202;2022-07-29T00:07:04;8.30;;;6.38;;
73940;SDS011;62294;48.554;10.202;2022-07-29T00:09:30;12.43;;;8.98;;
73940;SDS011;62294;48.554;10.202;2022-07-29T00:11:58;10.90;;;7.55;;
73940;SDS011;62294;48.554;10.202;2022-07-29T00:14:26;13.18;;;9.00;;
73940;SDS011;62294;48.554;10.202;2022-07-29T00:16:54;11.93;;;8.80;;
73940;SDS011;62294;48.554;10.202;2022-07-29T00:19:21;11.73;;;8.05;;
73940;SDS011;62294;48.554;10.202;2022-07-29T00:21:48;12.43;;;9.48;;
73940;SDS011;62294;48.554;10.202;2022-07-29T00:24:15;12.10;;;8.95;;
73940;SDS011;62294;48.554;10.202;2022-07-29T00:26:41;10.30;;;7.22;;
73940;SDS011;62294;48.554;10.202;2022-07-29T00:29:08;10.77;;;8.13;;
73940;SDS011;62294;48.554;10.202;2022-07-29T00:31:54;10.65;;;8.05;;
73940;SDS011;62294;48.554;10.202;2022-07-29T00:34:22;14.13;;;7.95;;
73940;SDS011;62294;48.554;10.202;2022-07-29T00:39:33;10.25;;;8.07;;
73940;SDS011;62294;48.554;10.202;2022-07-29T00:42:02;8.63;;;6.68;;
73940;SDS011;62294;48.554;10.202;2022-07-29T00:44:29;10.38;;;7.15;;
73940;SDS011;62294;48.554;10.202;2022-07-29T00:46:56;12.15;;;7.55;;
73940;SDS011;62294;48.554;10.202;2022-07-29T00:49:22;10.40;;;7.43;;
73940;SDS011;62294;48.554;10.202;2022-07-29T00:51:49;10.73;;;8.00;;
73940;SDS011;62294;48.554;10.202;2022-07-29T00:54:16;13.10;;;8.65;;
73940;SDS011;62294;48.554;10.202;2022-07-29T00:56:44;13.05;;;9.40;;
73940;SDS011;62294;48.554;10.202;2022-07-29T00:59:10;12.05;;;8.25;;
73940;SDS011;62294;48.554;10.202;2022-07-29T01:01:37;10.82;;;8.82;;
73940;SDS011;62294;48.554;10.202;2022-07-29T01:04:03;12.27;;;8.65;;
73940;SDS011;62294;48.554;10.202;2022-07-29T01:06:32;12.20;;;8.07;;
73940;SDS011;62294;48.554;10.202;2022-07-29T01:09:00;12.50;;;9.63;;
73940;SDS011;62294;48.554;10.202;2022-07-29T01:11:27;11.50;;;8.65;;
73940;SDS011;62294;48.554;10.202;2022-07-29T01:13:54;15.55;;;9.13;;
73940;SDS011;62294;48.554;10.202;2022-07-29T01:16:24;19.05;;;8.80;;
73940;SDS011;62294;48.554;10.202;2022-07-29T01:18:59;12.35;;;8.25;;
73940;SDS011;62294;48.554;10.202;2022-07-29T01:24:55;15.52;;;10.23;;
73940;SDS011;62294;48.554;10.202;2022-07-29T01:27:12;15.32;;;10.98;;
73940;SDS011;62294;48.554;10.202;2022-07-29T01:29:48;15.18;;;10.45;;
73940;SDS011;62294;48.554;10.202;2022-07-29T01:32:22;16.25;;;12.55;;
73940;SDS011;62294;48.554;10.202;2022-07-29T01:37:37;16.42;;;11.73;;
73940;SDS011;62294;48.554;10.202;2022-07-29T01:40:11;18.85;;;12.35;;
73940;SDS011;62294;48.554;10.202;2022-07-29T01:42:48;21.75;;;13.40;;
73940;SDS011;62294;48.554;10.202;2022-07-29T01:48:12;20.98;;;14.98;;
73940;SDS011;62294;48.554;10.202;2022-07-29T01:50:50;21.90;;;13.63;;
73940;SDS011;62294;48.554;10.202;2022-07-29T01:53:26;20.30;;;14.77;;
73940;SDS011;62294;48.554;10.202;2022-07-29T01:56:03;22.15;;;14.25;;
73940;SDS011;62294;48.554;10.202;2022-07-29T01:58:32;19.52;;;13.68;;
73940;SDS011;62294;48.554;10.202;2022-07-29T02:01:01;25.55;;;15.85;;
73940;SDS011;62294;48.554;10.202;2022-07-29T02:03:29;25.05;;;16.58;;
73940;SDS011;62294;48.554;10.202;2022-07-29T02:05:58;29.00;;;18.27;;
73940;SDS011;62294;48.554;10.202;2022-07-29T02:08:28;25.70;;;15.65;;
73940;SDS011;62294;48.554;10.202;2022-07-29T02:10:56;25.40;;;16.40;;
73940;SDS011;62294;48.554;10.202;2022-07-29T02:13:24;23.52;;;15.88;;
73940;SDS011;62294;48.554;10.202;2022-07-29T02:15:54;24.30;;;17.25;;
73940;SDS011;62294;48.554;10.202;2022-07-29T02:18:23;30.48;;;18.33;;
73940;SDS011;62294;48.554;10.202;2022-07-29T02:20:52;30.85;;;18.80;;
73940;SDS011;62294;48.554;10.202;2022-07-29T02:23:23;30.70;;;19.20;;
73940;SDS011;62294;48.554;10.202;2022-07-29T02:25:52;41.33;;;23.92;;
73940;SDS011;62294;48.554;10.202;2022-07-29T02:28:21;52.90;;;29.48;;
73940;SDS011;62294;48.554;10.202;2022-07-29T02:30:50;48.28;;;28.63;;
73940;SDS011;62294;48.554;10.202;2022-07-29T02:33:18;41.33;;;23.17;;
73940;SDS011;62294;48.554;10.202;2022-07-29T02:35:47;42.10;;;23.65;;
73940;SDS011;62294;48.554;10.202;2022-07-29T02:38:14;39.25;;;24.10;;
73940;SDS011;62294;48.554;10.202;2022-07-29T02:41:08;41.50;;;23.58;;
73940;SDS011;62294;48.554;10.202;2022-07-29T02:43:38;44.90;;;23.83;;
73940;SDS011;62294;48.554;10.202;2022-07-29T02:46:07;41.10;;;23.70;;
73940;SDS011;62294;48.554;10.202;2022-07-29T02:48:59;41.30;;;24.45;;
73940;SDS011;62294;48.554;10.202;2022-07-29T02:51:58;39.53;;;23.08;;
73940;SDS011;62294;48.554;10.202;2022-07-29T02:54:31;37.15;;;23.10;;
73940;SDS011;62294;48.554;10.202;2022-07-29T02:57:06;37.90;;;21.25;;
73940;SDS011;62294;48.554;10.202;2022-07-29T02:59:42;41.35;;;22.40;;
73940;SDS011;62294;48.554;10.202;2022-07-29T03:02:12;40.40;;;22.40;;
73940;SDS011;62294;48.554;10.202;2022-07-29T03:04:41;37.42;;;20.70;;
73940;SDS011;62294;48.554;10.202;2022-07-29T03:07:11;30.10;;;18.60;;
73940;SDS011;62294;48.554;10.202;2022-07-29T03:09:41;30.48;;;20.08;;
73940;SDS011;62294;48.554;10.202;2022-07-29T03:12:08;36.03;;;21.77;;
73940;SDS011;62294;48.554;10.202;2022-07-29T03:14:37;37.78;;;21.40;;
73940;SDS011;62294;48.554;10.202;2022-07-29T03:17:04;41.53;;;22.33;;
73940;SDS011;62294;48.554;10.202;2022-07-29T03:19:31;39.13;;;21.92;;
73940;SDS011;62294;48.554;10.202;2022-07-29T03:21:58;34.55;;;20.58;;
73940;SDS011;62294;48.554;10.202;2022-07-29T03:24:26;33.47;;;20.77;;
73940;SDS011;62294;48.554;10.202;2022-07-29T03:26:55;31.67;;;19.42;;
73940;SDS011;62294;48.554;10.202;2022-07-29T03:29:22;32.53;;;19.48;;
73940;SDS011;62294;48.554;10.202;2022-07-29T03:31:49;31.42;;;19.08;;
73940;SDS011;62294;48.554;10.202;2022-07-29T03:34:16;33.35;;;18.40;;
73940;SDS011;62294;48.554;10.202;2022-07-29T03:36:43;27.95;;;17.70;;
73940;SDS011;62294;48.554;10.202;2022-07-29T03:39:10;30.33;;;17.92;;
73940;SDS011;62294;48.554;10.202;2022-07-29T03:41:40;30.55;;;19.30;;
73940;SDS011;62294;48.554;10.202;2022-07-29T03:44:10;30.00;;;18.13;;
73940;SDS011;62294;48.554;10.202;2022-07-29T03:46:40;33.63;;;19.92;;
73940;SDS011;62294;48.554;10.202;2022-07-29T03:49:09;30.75;;;18.00;;
73940;SDS011;62294;48.554;10.202;2022-07-29T03:51:38;26.08;;;17.08;;
73940;SDS011;62294;48.554;10.202;2022-07-29T03:54:05;29.40;;;18.15;;
73940;SDS011;62294;48.554;10.202;2022-07-29T03:56:37;28.08;;;16.75;;
73940;SDS011;62294;48.554;10.202;2022-07-29T03:59:05;25.40;;;15.57;;
73940;SDS011;62294;48.554;10.202;2022-07-29T04:01:33;24.63;;;14.75;;
73940;SDS011;62294;48.554;10.202;2022-07-29T04:04:01;29.33;;;15.13;;
73940;SDS011;62294;48.554;10.202;2022-07-29T04:06:27;31.30;;;13.65;;
73940;SDS011;62294;48.554;10.202;2022-07-29T04:08:54;41.28;;;16.10;;
73940;SDS011;62294;48.554;10.202;2022-07-29T04:11:20;54.60;;;18.15;;
73940;SDS011;62294;48.554;10.202;2022-07-29T04:13:47;63.13;;;20.52;;
73940;SDS011;62294;48.554;10.202;2022-07-29T04:16:14;70.38;;;22.73;;
73940;SDS011;62294;48.554;10.202;2022-07-29T04:18:40;68.13;;;21.25;;
73940;SDS011;62294;48.554;10.202;2022-07-29T04:21:07;31.88;;;14.95;;
73940;SDS011;62294;48.554;10.202;2022-07-29T04:23:33;30.92;;;13.98;;
73940;SDS011;62294;48.554;10.202;2022-07-29T04:25:59;54.13;;;16.52;;
73940;SDS011;62294;48.554;10.202;2022-07-29T04:28:27;37.97;;;16.48;;
73940;SDS011;62294;48.554;10.202;2022-07-29T04:30:53;31.02;;;16.77;;
73940;SDS011;62294;48.554;10.202;2022-07-29T04:33:20;27.88;;;15.73;;
73940;SDS011;62294;48.554;10.202;2022-07-29T04:35:50;26.27;;;15.50;;
73940;SDS011;62294;48.554;10.202;2022-07-29T04:38:20;31.17;;;16.63;;
73940;SDS011;62294;48.554;10.202;2022-07-29T04:40:47;22.77;;;14.60;;
73940;SDS011;62294;48.554;10.202;2022-07-29T04:43:15;21.65;;;14.13;;
73940;SDS011;62294;48.554;10.202;2022-07-29T04:45:47;25.30;;;14.60;;
73940;SDS011;62294;48.554;10.202;2022-07-29T04:48:15;25.13;;;14.55;;
73940;SDS011;62294;48.554;10.202;2022-07-29T04:50:41;25.58;;;15.43;;
73940;SDS011;62294;48.554;10.202;2022-07-29T04:53:08;28.20;;;16.75;;
73940;SDS011;62294;48.554;10.202;2022-07-29T04:55:35;25.33;;;16.75;;
73940;SDS011;62294;48.554;10.202;2022-07-29T04:58:04;26.58;;;16.60;;
73940;SDS011;62294;48.554;10.202;2022-07-29T05:00:30;26.65;;;16.63;;
73940;SDS011;62294;48.554;10.202;2022-07-29T05:02:58;28.25;;;17.15;;
73940;SDS011;62294;48.554;10.202;2022-07-29T05:05:25;64.90;;;27.25;;
73940;SDS011;62294;48.554;10.202;2022-07-29T05:07:51;70.93;;;28.75;;
73940;SDS011;62294;48.554;10.202;2022-07-29T05:10:18;64.55;;;28.35;;
73940;SDS011;62294;48.554;10.202;2022-07-29T05:12:45;60.92;;;26.35;;
73940;SDS011;62294;48.554;10.202;2022-07-29T05:15:11;57.15;;;26.80;;
73940;SDS011;62294;48.554;10.202;2022-07-29T05:17:38;52.30;;;25.10;;
73940;SDS011;62294;48.554;10.202;2022-07-29T05:20:05;44.35;;;25.10;;
73940;SDS011;62294;48.554;10.202;2022-07-29T05:22:33;39.75;;;22.60;;
73940;SDS011;62294;48.554;10.202;2022-07-29T05:24:59;33.67;;;19.30;;
73940;SDS011;62294;48.554;10.202;2022-07-29T05:30:00;28.25;;;17.73;;
73940;SDS011;62294;48.554;10.202;2022-07-29T05:32:26;24.75;;;15.88;;
73940;SDS011;62294;48.554;10.202;2022-07-29T05:34:53;23.17;;;15.40;;
73940;SDS011;62294;48.554;10.202;2022-07-29T05:37:19;25.05;;;16.25;;
73940;SDS011;62294;48.554;10.202;2022-07-29T05:39:46;21.92;;;14.80;;
73940;SDS011;62294;48.554;10.202;2022-07-29T05:42:16;22.33;;;15.18;;
73940;SDS011;62294;48.554;10.202;2022-07-29T05:44:42;20.92;;;14.10;;
73940;SDS011;62294;48.554;10.202;2022-07-29T05:47:09;20.55;;;13.43;;
73940;SDS011;62294;48.554;10.202;2022-07-29T05:49:35;21.45;;;14.10;;
73940;SDS011;62294;48.554;10.202;2022-07-29T05:52:02;18.80;;;13.07;;
73940;SDS011;62294;48.554;10.202;2022-07-29T05:54:29;17.88;;;12.05;;
73940;SDS011;62294;48.554;10.202;2022-07-29T05:56:56;17.15;;;12.85;;
73940;SDS011;62294;48.554;10.202;2022-07-29T05:59:23;19.95;;;12.82;;
73940;SDS011;62294;48.554;10.202;2022-07-29T06:01:55;21.08;;;12.80;;
73940;SDS011;62294;48.554;10.202;2022-07-29T06:04:23;19.80;;;12.50;;
73940;SDS011;62294;48.554;10.202;2022-07-29T06:06:50;18.35;;;12.45;;
73940;SDS011;62294;48.554;10.202;2022-07-29T06:09:16;17.75;;;11.32;;
73940;SDS011;62294;48.554;10.202;2022-07-29T06:11:43;19.83;;;13.35;;
73940;SDS011;62294;48.554;10.202;2022-07-29T06:14:09;18.00;;;12.52;;
73940;SDS011;62294;48.554;10.202;2022-07-29T06:16:36;19.50;;;13.05;;
73940;SDS011;62294;48.554;10.202;2022-07-29T06:19:03;18.08;;;12.07;;
73940;SDS011;62294;48.554;10.202;2022-07-29T06:21:30;17.30;;;11.57;;
73940;SDS011;62294;48.554;10.202;2022-07-29T06:23:56;17.50;;;12.00;;
73940;SDS011;62294;48.554;10.202;2022-07-29T06:26:23;15.48;;;11.15;;
73940;SDS011;62294;48.554;10.202;2022-07-29T06:28:56;13.80;;;10.63;;
73940;SDS011;62294;48.554;10.202;2022-07-29T06:31:23;14.15;;;9.80;;
73940;SDS011;62294;48.554;10.202;2022-07-29T06:33:50;14.73;;;9.05;;
73940;SDS011;62294;48.554;10.202;2022-07-29T06:36:19;16.40;;;10.02;;
73940;SDS011;62294;48.554;10.202;2022-07-29T06:38:50;13.30;;;8.38;;
73940;SDS011;62294;48.554;10.202;2022-07-29T06:41:17;12.57;;;8.70;;
73940;SDS011;62294;48.554;10.202;2022-07-29T06:43:44;12.25;;;6.85;;
73940;SDS011;62294;48.554;10.202;2022-07-29T06:46:20;9.40;;;6.07;;
73940;SDS011;62294;48.554;10.202;2022-07-29T06:48:48;8.60;;;6.35;;
73940;SDS011;62294;48.554;10.202;2022-07-29T06:51:16;11.77;;;6.25;;
73940;SDS011;62294;48.554;10.202;2022-07-29T06:53:48;8.02;;;5.57;;
73940;SDS011;62294;48.554;10.202;2022-07-29T06:56:28;8.75;;;5.50;;
73940;SDS011;62294;48.554;10.202;2022-07-29T06:58:56;8.48;;;5.03;;
73940;SDS011;62294;48.554;10.202;2022-07-29T07:01:22;7.03;;;5.45;;
73940;SDS011;62294;48.554;10.202;2022-07-29T07:03:49;8.73;;;6.30;;
73940;SDS011;62294;48.554;10.202;2022-07-29T07:06:15;8.30;;;5.88;;
73940;SDS011;62294;48.554;10.202;2022-07-29T07:08:42;9.75;;;5.90;;
73940;SDS011;62294;48.554;10.202;2022-07-29T07:11:09;9.02;;;6.72;;
73940;SDS011;62294;48.554;10.202;2022-07-29T07:13:35;11.18;;;6.50;;
73940;SDS011;62294;48.554;10.202;2022-07-29T07:16:02;8.13;;;5.63;;
73940;SDS011;62294;48.554;10.202;2022-07-29T07:18:30;8.30;;;6.03;;
73940;SDS011;62294;48.554;10.202;2022-07-29T07:20:57;7.07;;;5.95;;
73940;SDS011;62294;48.554;10.202;2022-07-29T07:23:24;6.88;;;5.47;;
73940;SDS011;62294;48.554;10.202;2022-07-29T07:25:51;7.07;;;5.40;;
73940;SDS011;62294;48.554;10.202;2022-07-29T07:28:17;6.68;;;5.35;;
73940;SDS011;62294;48.554;10.202;2022-07-29T07:30:50;8.80;;;5.65;;
73940;SDS011;62294;48.554;10.202;2022-07-29T07:33:16;7.68;;;5.68;;
73940;SDS011;62294;48.554;10.202;2022-07-29T07:35:43;10.65;;;5.63;;
73940;SDS011;62294;48.554;10.202;2022-07-29T07:38:10;8.07;;;5.28;;
73940;SDS011;62294;48.554;10.202;2022-07-29T07:40:37;7.78;;;5.20;;
73940;SDS011;62294;48.554;10.202;2022-07-29T07:43:04;7.28;;;5.40;;
73940;SDS011;62294;48.554;10.202;2022-07-29T07:45:31;8.52;;;5.50;;
73940;SDS011;62294;48.554;10.202;2022-07-29T07:47:59;8.82;;;5.68;;
73940;SDS011;62294;48.554;10.202;2022-07-29T07:50:25;6.97;;;5.43;;
73940;SDS011;62294;48.554;10.202;2022-07-29T07:52:53;7.18;;;5.43;;
73940;SDS011;62294;48.554;10.202;2022-07-29T07:55:23;6.93;;;5.35;;
73940;SDS011;62294;48.554;10.202;2022-07-29T07:57:50;10.05;;;5.40;;
73940;SDS011;62294;48.554;10.202;2022-07-29T08:00:17;7.35;;;5.47;;
73940;SDS011;62294;48.554;10.202;2022-07-29T08:02:44;7.18;;;5.25;;
73940;SDS011;62294;48.554;10.202;2022-07-29T08:05:11;8.52;;;5.70;;
73940;SDS011;62294;48.554;10.202;2022-07-29T08:07:46;6.03;;;4.93;;
73940;SDS011;62294;48.554;10.202;2022-07-29T08:10:13;6.18;;;4.70;;
73940;SDS011;62294;48.554;10.202;2022-07-29T08:12:41;7.45;;;4.80;;
73940;SDS011;62294;48.554;10.202;2022-07-29T08:15:08;8.07;;;5.07;;
73940;SDS011;62294;48.554;10.202;2022-07-29T08:17:34;7.70;;;4.95;;
73940;SDS011;62294;48.554;10.202;2022-07-29T08:20:01;5.90;;;4.50;;
73940;SDS011;62294;48.554;10.202;2022-07-29T08:22:28;8.90;;;5.22;;
73940;SDS011;62294;48.554;10.202;2022-07-29T08:24:54;7.28;;;4.47;;
73940;SDS011;62294;48.554;10.202;2022-07-29T08:27:22;7.07;;;4.55;;
73940;SDS011;62294;48.554;10.202;2022-07-29T08:30:08;5.70;;;4.35;;
73940;SDS011;62294;48.554;10.202;2022-07-29T08:32:36;6.65;;;5.30;;
73940;SDS011;62294;48.554;10.202;2022-07-29T08:35:19;7.68;;;4.75;;
73940;SDS011;62294;48.554;10.202;2022-07-29T08:37:46;7.38;;;4.93;;
73940;SDS011;62294;48.554;10.202;2022-07-29T08:40:14;5.93;;;4.57;;
73940;SDS011;62294;48.554;10.202;2022-07-29T08:42:40;7.18;;;4.90;;
73940;SDS011;62294;48.554;10.202;2022-07-29T08:45:08;6.72;;;4.30;;
73940;SDS011;62294;48.554;10.202;2022-07-29T08:47:35;7.18;;;4.70;;
73940;SDS011;62294;48.554;10.202;2022-07-29T08:50:08;7.90;;;4.82;;
73940;SDS011;62294;48.554;10.202;2022-07-29T08:52:37;7.22;;;4.47;;
73940;SDS011;62294;48.554;10.202;2022-07-29T08:55:05;6.78;;;4.10;;
73940;SDS011;62294;48.554;10.202;2022-07-29T08:57:33;6.65;;;4.30;;
73940;SDS011;62294;48.554;10.202;2022-07-29T09:00:03;6.50;;;4.18;;
73940;SDS011;62294;48.554;10.202;2022-07-29T09:02:40;5.40;;;4.28;;
73940;SDS011;62294;48.554;10.202;2022-07-29T09:05:12;6.10;;;4.38;;
73940;SDS011;62294;48.554;10.202;2022-07-29T09:07:39;5.28;;;4.45;;
73940;SDS011;62294;48.554;10.202;2022-07-29T09:10:09;6.90;;;4.78;;
73940;SDS011;62294;48.554;10.202;2022-07-29T09:12:36;8.65;;;4.95;;
73940;SDS011;62294;48.554;10.202;2022-07-29T09:15:03;6.28;;;4.97;;
73940;SDS011;62294;48.554;10.202;2022-07-29T09:17:43;6.78;;;4.32;;
73940;SDS011;62294;48.554;10.202;2022-07-29T09:20:13;6.55;;;4.68;;
73940;SDS011;62294;48.554;10.202;2022-07-29T09:22:44;7.75;;;4.70;;
73940;SDS011;62294;48.554;10.202;2022-07-29T09:28:10;6.43;;;5.05;;
73940;SDS011;62294;48.554;10.202;2022-07-29T09:30:54;6.53;;;5.13;;
73940;SDS011;62294;48.554;10.202;2022-07-29T09:33:32;7.05;;;5.22;;
73940;SDS011;62294;48.554;10.202;2022-07-29T09:36:06;7.70;;;5.05;;
73940;SDS011;62294;48.554;10.202;2022-07-29T09:38:34;8.02;;;5.18;;
73940;SDS011;62294;48.554;10.202;2022-07-29T09:41:03;7.30;;;5.53;;
73940;SDS011;62294;48.554;10.202;2022-07-29T09:43:32;6.53;;;5.05;;
73940;SDS011;62294;48.554;10.202;2022-07-29T09:46:10;6.20;;;5.40;;
73940;SDS011;62294;48.554;10.202;2022-07-29T09:48:40;7.80;;;5.25;;
73940;SDS011;62294;48.554;10.202;2022-07-29T09:51:19;7.25;;;5.18;;
73940;SDS011;62294;48.554;10.202;2022-07-29T09:54:21;6.63;;;5.72;;
73940;SDS011;62294;48.554;10.202;2022-07-29T09:56:53;8.57;;;5.63;;
73940;SDS011;62294;48.554;10.202;2022-07-29T09:59:21;7.65;;;5.68;;
73940;SDS011;62294;48.554;10.202;2022-07-29T10:01:50;7.68;;;5.90;;
73940;SDS011;62294;48.554;10.202;2022-07-29T10:04:16;6.43;;;5.22;;
73940;SDS011;62294;48.554;10.202;2022-07-29T10:07:00;7.05;;;5.63;;
73940;SDS011;62294;48.554;10.202;2022-07-29T10:09:31;8.20;;;5.43;;
73940;SDS011;62294;48.554;10.202;2022-07-29T10:14:32;6.07;;;5.28;;
73940;SDS011;62294;48.554;10.202;2022-07-29T10:17:02;6.80;;;5.60;;
73940;SDS011;62294;48.554;10.202;2022-07-29T10:19:30;6.35;;;5.38;;
73940;SDS011;62294;48.554;10.202;2022-07-29T10:21:58;7.47;;;4.50;;
73940;SDS011;62294;48.554;10.202;2022-07-29T10:24:26;5.82;;;4.32;;
73940;SDS011;62294;48.554;10.202;2022-07-29T10:26:55;9.27;;;4.40;;
73940;SDS011;62294;48.554;10.202;2022-07-29T10:29:23;8.10;;;4.10;;
73940;SDS011;62294;48.554;10.202;2022-07-29T10:31:57;5.90;;;3.83;;
73940;SDS011;62294;48.554;10.202;2022-07-29T10:37:37;7.57;;;4.70;;
73940;SDS011;62294;48.554;10.202;2022-07-29T10:43:46;4.88;;;3.78;;
73940;SDS011;62294;48.554;10.202;2022-07-29T10:46:16;8.40;;;4.22;;
73940;SDS011;62294;48.554;10.202;2022-07-29T10:59:41;8.23;;;4.15;;
73940;SDS011;62294;48.554;10.202;2022-07-29T11:05:14;8.38;;;3.50;;
73940;SDS011;62294;48.554;10.202;2022-07-29T11:10:46;6.07;;;3.00;;
73940;SDS011;62294;48.554;10.202;2022-07-29T11:16:14;5.10;;;3.08;;
73940;SDS011;62294;48.554;10.202;2022-07-29T11:21:42;4.43;;;3.20;;
73940;SDS011;62294;48.554;10.202;2022-07-29T11:29:47;3.72;;;2.60;;
73940;SDS011;62294;48.554;10.202;2022-07-29T11:32:35;4.70;;;2.95;;
73940;SDS011;62294;48.554;10.202;2022-07-29T11:37:45;4.07;;;2.65;;
73940;SDS011;62294;48.554;10.202;2022-07-29T11:40:32;4.43;;;3.08;;
73940;SDS011;62294;48.554;10.202;2022-07-29T11:42:59;4.63;;;3.10;;
73940;SDS011;62294;48.554;10.202;2022-07-29T11:45:26;6.57;;;3.42;;
73940;SDS011;62294;48.554;10.202;2022-07-29T11:48:17;8.57;;;3.63;;
73940;SDS011;62294;48.554;10.202;2022-07-29T11:51:08;4.22;;;3.08;;
73940;SDS011;62294;48.554;10.202;2022-07-29T11:53:38;4.43;;;2.88;;
73940;SDS011;62294;48.554;10.202;2022-07-29T11:56:07;6.72;;;2.58;;
73940;SDS011;62294;48.554;10.202;2022-07-29T11:58:35;6.35;;;2.40;;
73940;SDS011;62294;48.554;10.202;2022-07-29T12:01:03;5.05;;;2.80;;
73940;SDS011;62294;48.554;10.202;2022-07-29T12:03:31;3.38;;;2.42;;
73940;SDS011;62294;48.554;10.202;2022-07-29T12:06:01;3.30;;;2.42;;
73940;SDS011;62294;48.554;10.202;2022-07-29T12:08:40;6.35;;;2.97;;
73940;SDS011;62294;48.554;10.202;2022-07-29T12:11:16;3.65;;;2.83;;
73940;SDS011;62294;48.554;10.202;2022-07-29T12:13:46;4.22;;;2.70;;
73940;SDS011;62294;48.554;10.202;2022-07-29T12:16:14;5.53;;;2.70;;
73940;SDS011;62294;48.554;10.202;2022-07-29T12:18:41;5.28;;;2.95;;
73940;SDS011;62294;48.554;10.202;2022-07-29T12:21:07;4.40;;;2.70;;
73940;SDS011;62294;48.554;10.202;2022-07-29T12:23:37;6.00;;;2.95;;
73940;SDS011;62294;48.554;10.202;2022-07-29T12:26:04;4.25;;;2.90;;
73940;SDS011;62294;48.554;10.202;2022-07-29T12:28:46;4.93;;;2.95;;
73940;SDS011;62294;48.554;10.202;2022-07-29T12:31:14;3.92;;;2.65;;
73940;SDS011;62294;48.554;10.202;2022-07-29T12:34:01;5.50;;;2.53;;
73940;SDS011;62294;48.554;10.202;2022-07-29T12:36:28;2.42;;;1.80;;
73940;SDS011;62294;48.554;10.202;2022-07-29T12:38:54;3.30;;;1.90;;
73940;SDS011;62294;48.554;10.202;2022-07-29T12:41:21;2.33;;;1.63;;
73940;SDS011;62294;48.554;10.202;2022-07-29T12:43:54;2.63;;;1.80;;
73940;SDS011;62294;48.554;10.202;2022-07-29T12:46:21;3.47;;;1.70;;
73940;SDS011;62294;48.554;10.202;2022-07-29T12:48:52;4.07;;;1.63;;
73940;SDS011;62294;48.554;10.202;2022-07-29T12:54:02;2.78;;;1.60;;
73940;SDS011;62294;48.554;10.202;2022-07-29T12:56:30;4.30;;;1.55;;
73940;SDS011;62294;48.554;10.202;2022-07-29T12:59:19;1.63;;;1.20;;
73940;SDS011;62294;48.554;10.202;2022-07-29T13:01:49;3.17;;;1.35;;
73940;SDS011;62294;48.554;10.202;2022-07-29T13:04:27;1.92;;;1.33;;
73940;SDS011;62294;48.554;10.202;2022-07-29T13:07:02;1.90;;;1.30;;
73940;SDS011;62294;48.554;10.202;2022-07-29T13:09:36;3.55;;;1.60;;
73940;SDS011;62294;48.554;10.202;2022-07-29T13:12:08;1.83;;;1.35;;
73940;SDS011;62294;48.554;10.202;2022-07-29T13:14:45;1.98;;;1.63;;
73940;SDS011;62294;48.554;10.202;2022-07-29T13:17:20;3.08;;;1.30;;
73940;SDS011;62294;48.554;10.202;2022-07-29T13:20:07;1.70;;;1.20;;
73940;SDS011;62294;48.554;10.202;2022-07-29T13:22:38;1.52;;;1.20;;
73940;SDS011;62294;48.554;10.202;2022-07-29T13:25:07;2.10;;;1.08;;
73940;SDS011;62294;48.554;10.202;2022-07-29T13:27:37;3.35;;;1.35;;
73940;SDS011;62294;48.554;10.202;2022-07-29T13:30:05;2.40;;;1.30;;
73940;SDS011;62294;48.554;10.202;2022-07-29T13:32:33;1.63;;;1.20;;
73940;SDS011;62294;48.554;10.202;2022-07-29T13:35:01;3.28;;;1.45;;
73940;SDS011;62294;48.554;10.202;2022-07-29T13:37:31;1.88;;;1.63;;
73940;SDS011;62294;48.554;10.202;2022-07-29T13:40:00;3.75;;;1.40;;
73940;SDS011;62294;48.554;10.202;2022-07-29T13:42:30;2.55;;;1.60;;
73940;SDS011;62294;48.554;10.202;2022-07-29T13:44:58;3.03;;;1.55;;
73940;SDS011;62294;48.554;10.202;2022-07-29T13:47:25;2.05;;;1.48;;
73940;SDS011;62294;48.554;10.202;2022-07-29T13:49:58;3.92;;;1.73;;
73940;SDS011;62294;48.554;10.202;2022-07-29T13:52:24;4.25;;;1.80;;
73940;SDS011;62294;48.554;10.202;2022-07-29T13:54:51;2.42;;;2.00;;
73940;SDS011;62294;48.554;10.202;2022-07-29T13:57:18;4.97;;;2.30;;
73940;SDS011;62294;48.554;10.202;2022-07-29T13:59:48;4.05;;;2.40;;
73940;SDS011;62294;48.554;10.202;2022-07-29T14:02:19;4.88;;;3.92;;
73940;SDS011;62294;48.554;10.202;2022-07-29T14:04:50;3.65;;;2.90;;
73940;SDS011;62294;48.554;10.202;2022-07-29T14:07:17;4.57;;;3.10;;
73940;SDS011;62294;48.554;10.202;2022-07-29T14:09:44;6.43;;;3.55;;
73940;SDS011;62294;48.554;10.202;2022-07-29T14:12:10;5.95;;;3.70;;
73940;SDS011;62294;48.554;10.202;2022-07-29T14:14:37;5.68;;;4.13;;
73940;SDS011;62294;48.554;10.202;2022-07-29T14:17:04;6.10;;;4.10;;
73940;SDS011;62294;48.554;10.202;2022-07-29T14:19:32;6.60;;;4.50;;
73940;SDS011;62294;48.554;10.202;2022-07-29T14:22:02;7.00;;;4.30;;
73940;SDS011;62294;48.554;10.202;2022-07-29T14:24:30;6.65;;;4.40;;
73940;SDS011;62294;48.554;10.202;2022-07-29T14:26:57;5.13;;;4.15;;
73940;SDS011;62294;48.554;10.202;2022-07-29T14:29:24;5.88;;;4.88;;
73940;SDS011;62294;48.554;10.202;2022-07-29T14:32:03;6.63;;;4.18;;
73940;SDS011;62294;48.554;10.202;2022-07-29T14:34:36;6.90;;;5.00;;
73940;SDS011;62294;48.554;10.202;2022-07-29T14:37:04;12.15;;;9.98;;
73940;SDS011;62294;48.554;10.202;2022-07-29T14:39:32;6.88;;;5.07;;
73940;SDS011;62294;48.554;10.202;2022-07-29T14:42:07;6.18;;;4.63;;
73940;SDS011;62294;48.554;10.202;2022-07-29T14:44:36;8.57;;;5.22;;
73940;SDS011;62294;48.554;10.202;2022-07-29T14:47:03;6.25;;;4.38;;
73940;SDS011;62294;48.554;10.202;2022-07-29T14:49:32;7.75;;;5.05;;
73940;SDS011;62294;48.554;10.202;2022-07-29T14:52:00;6.43;;;4.18;;
73940;SDS011;62294;48.554;10.202;2022-07-29T14:54:26;7.97;;;4.22;;
73940;SDS011;62294;48.554;10.202;2022-07-29T14:56:53;7.97;;;4.53;;
73940;SDS011;62294;48.554;10.202;2022-07-29T14:59:24;7.53;;;4.65;;
73940;SDS011;62294;48.554;10.202;2022-07-29T15:01:51;6.18;;;4.32;;
73940;SDS011;62294;48.554;10.202;2022-07-29T15:04:17;6.10;;;4.38;;
73940;SDS011;62294;48.554;10.202;2022-07-29T15:06:44;8.77;;;4.95;;
73940;SDS011;62294;48.554;10.202;2022-07-29T15:09:10;7.07;;;5.03;;
73940;SDS011;62294;48.554;10.202;2022-07-29T15:11:37;5.45;;;4.55;;
73940;SDS011;62294;48.554;10.202;2022-07-29T15:14:04;6.45;;;4.10;;
73940;SDS011;62294;48.554;10.202;2022-07-29T15:16:32;5.93;;;4.43;;
73940;SDS011;62294;48.554;10.202;2022-07-29T15:19:01;7.93;;;5.15;;
73940;SDS011;62294;48.554;10.202;2022-07-29T15:21:27;7.07;;;3.80;;
73940;SDS011;62294;48.554;10.202;2022-07-29T15:23:54;8.02;;;3.88;;
73940;SDS011;62294;48.554;10.202;2022-07-29T15:26:20;6.85;;;3.80;;
73940;SDS011;62294;48.554;10.202;2022-07-29T15:28:47;5.88;;;3.20;;
73940;SDS011;62294;48.554;10.202;2022-07-29T15:31:14;4.57;;;2.95;;
73940;SDS011;62294;48.554;10.202;2022-07-29T15:33:40;6.10;;;3.00;;
73940;SDS011;62294;48.554;10.202;2022-07-29T15:36:07;6.75;;;2.92;;
73940;SDS011;62294;48.554;10.202;2022-07-29T15:38:34;6.20;;;2.53;;